sensor_id;sensor_type;location;lat;lon;timestamp;P1;durP1;ratioP1;P2;durP2;ratioP2
48241;SDS011;34041;51.812;4.622;2022-11-25T00:00:33;8.93;;;2.75;;
48241;SDS011;34041;51.812;4.622;2022-11-25T00:03:33;10.10;;;3.13;;
48241;SDS011;34041;51.812;4.622;2022-11-25T00:06:34;5.10;;;2.88;;
48241;SDS011;34041;51.812;4.622;2022-11-25T00:09:35;6.53;;;2.67;;
48241;SDS011;34041;51.812;4.622;2022-11-25T00:12:35;7.13;;;3.20;;
48241;SDS011;34041;51.812;4.622;2022-11-25T00:15:35;6.27;;;2.70;;
48241;SDS011;34041;51.812;4.622;2022-11-25T00:18:35;9.55;;;3.22;;
48241;SDS011;34041;51.812;4.622;2022-11-25T00:21:36;5.55;;;1.98;;
48241;SDS011;34041;51.812;4.622;2022-11-25T00:24:36;6.93;;;2.17;;
48241;SDS011;34041;51.812;4.622;2022-11-25T00:27:36;7.60;;;2.53;;
48241;SDS011;34041;51.812;4.622;2022-11-25T00:30:36;8.32;;;3.08;;
48241;SDS011;34041;51.812;4.622;2022-11-25T00:33:37;10.47;;;3.30;;
48241;SDS011;34041;51.812;4.622;2022-11-25T00:36:37;6.90;;;2.40;;
48241;SDS011;34041;51.812;4.622;2022-11-25T00:39:37;7.20;;;2.88;;
48241;SDS011;34041;51.812;4.622;2022-11-25T00:42:38;9.45;;;2.40;;
48241;SDS011;34041;51.812;4.622;2022-11-25T00:45:57;9.95;;;3.17;;
48241;SDS011;34041;51.812;4.622;2022-11-25T00:48:57;7.43;;;2.67;;
48241;SDS011;34041;51.812;4.622;2022-11-25T00:51:57;7.07;;;2.60;;
48241;SDS011;34041;51.812;4.622;2022-11-25T00:54:57;7.80;;;2.55;;
48241;SDS011;34041;51.812;4.622;2022-11-25T00:57:58;6.05;;;2.28;;
48241;SDS011;34041;51.812;4.622;2022-11-25T01:01:00;8.20;;;2.37;;
48241;SDS011;34041;51.812;4.622;2022-11-25T01:04:00;9.07;;;2.63;;
48241;SDS011;34041;51.812;4.622;2022-11-25T01:07:00;6.53;;;3.10;;
48241;SDS011;34041;51.812;4.622;2022-11-25T01:10:01;5.55;;;2.55;;
48241;SDS011;34041;51.812;4.622;2022-11-25T01:13:01;8.50;;;2.50;;
48241;SDS011;34041;51.812;4.622;2022-11-25T01:16:02;8.10;;;2.87;;
48241;SDS011;34041;51.812;4.622;2022-11-25T01:19:02;9.43;;;2.90;;
48241;SDS011;34041;51.812;4.622;2022-11-25T01:22:03;10.15;;;3.22;;
48241;SDS011;34041;51.812;4.622;2022-11-25T01:25:03;4.87;;;2.30;;
48241;SDS011;34041;51.812;4.622;2022-11-25T01:28:03;9.40;;;3.15;;
48241;SDS011;34041;51.812;4.622;2022-11-25T01:31:11;8.13;;;2.80;;
48241;SDS011;34041;51.812;4.622;2022-11-25T01:34:21;8.57;;;2.58;;
48241;SDS011;34041;51.812;4.622;2022-11-25T01:37:22;5.53;;;2.15;;
48241;SDS011;34041;51.812;4.622;2022-11-25T01:40:22;7.10;;;2.30;;
48241;SDS011;34041;51.812;4.622;2022-11-25T01:43:22;7.57;;;2.80;;
48241;SDS011;34041;51.812;4.622;2022-11-25T01:46:24;4.93;;;2.50;;
48241;SDS011;34041;51.812;4.622;2022-11-25T01:52:28;9.95;;;3.00;;
48241;SDS011;34041;51.812;4.622;2022-11-25T01:55:30;6.50;;;2.72;;
48241;SDS011;34041;51.812;4.622;2022-11-25T01:58:35;7.50;;;2.50;;
48241;SDS011;34041;51.812;4.622;2022-11-25T02:01:36;5.63;;;2.50;;
48241;SDS011;34041;51.812;4.622;2022-11-25T02:04:36;5.88;;;2.22;;
48241;SDS011;34041;51.812;4.622;2022-11-25T02:07:38;5.72;;;2.17;;
48241;SDS011;34041;51.812;4.622;2022-11-25T02:10:39;7.53;;;2.58;;
48241;SDS011;34041;51.812;4.622;2022-11-25T02:13:39;9.52;;;2.67;;
48241;SDS011;34041;51.812;4.622;2022-11-25T02:16:39;6.30;;;2.28;;
48241;SDS011;34041;51.812;4.622;2022-11-25T02:19:47;7.47;;;2.95;;
48241;SDS011;34041;51.812;4.622;2022-11-25T02:25:58;9.02;;;2.65;;
48241;SDS011;34041;51.812;4.622;2022-11-25T02:28:58;5.43;;;2.00;;
48241;SDS011;34041;51.812;4.622;2022-11-25T02:31:59;7.70;;;2.97;;
48241;SDS011;34041;51.812;4.622;2022-11-25T02:34:59;4.90;;;2.20;;
48241;SDS011;34041;51.812;4.622;2022-11-25T02:38:01;10.10;;;2.40;;
48241;SDS011;34041;51.812;4.622;2022-11-25T02:41:13;7.68;;;2.45;;
48241;SDS011;34041;51.812;4.622;2022-11-25T02:44:15;5.18;;;1.88;;
48241;SDS011;34041;51.812;4.622;2022-11-25T02:47:15;6.00;;;2.00;;
48241;SDS011;34041;51.812;4.622;2022-11-25T02:50:15;5.45;;;2.33;;
48241;SDS011;34041;51.812;4.622;2022-11-25T02:53:16;7.07;;;2.20;;
48241;SDS011;34041;51.812;4.622;2022-11-25T02:56:17;4.45;;;1.50;;
48241;SDS011;34041;51.812;4.622;2022-11-25T02:59:17;7.03;;;2.08;;
48241;SDS011;34041;51.812;4.622;2022-11-25T03:02:18;7.60;;;2.17;;
48241;SDS011;34041;51.812;4.622;2022-11-25T03:05:19;3.70;;;1.17;;
48241;SDS011;34041;51.812;4.622;2022-11-25T03:08:19;4.13;;;1.40;;
48241;SDS011;34041;51.812;4.622;2022-11-25T03:11:19;3.60;;;1.40;;
48241;SDS011;34041;51.812;4.622;2022-11-25T03:14:20;3.63;;;1.70;;
48241;SDS011;34041;51.812;4.622;2022-11-25T03:17:20;4.13;;;1.70;;
48241;SDS011;34041;51.812;4.622;2022-11-25T03:20:20;4.37;;;1.77;;
48241;SDS011;34041;51.812;4.622;2022-11-25T03:23:20;5.40;;;1.60;;
48241;SDS011;34041;51.812;4.622;2022-11-25T03:26:21;3.78;;;1.38;;
48241;SDS011;34041;51.812;4.622;2022-11-25T03:29:21;4.87;;;2.07;;
48241;SDS011;34041;51.812;4.622;2022-11-25T03:32:21;5.60;;;1.70;;
48241;SDS011;34041;51.812;4.622;2022-11-25T03:35:21;3.67;;;1.63;;
48241;SDS011;34041;51.812;4.622;2022-11-25T03:38:22;4.70;;;1.17;;
48241;SDS011;34041;51.812;4.622;2022-11-25T03:41:22;2.57;;;1.17;;
48241;SDS011;34041;51.812;4.622;2022-11-25T03:44:22;4.32;;;1.75;;
48241;SDS011;34041;51.812;4.622;2022-11-25T03:47:23;3.72;;;1.40;;
48241;SDS011;34041;51.812;4.622;2022-11-25T03:50:23;3.90;;;1.30;;
48241;SDS011;34041;51.812;4.622;2022-11-25T03:53:23;2.88;;;1.33;;
48241;SDS011;34041;51.812;4.622;2022-11-25T03:56:23;5.40;;;1.30;;
48241;SDS011;34041;51.812;4.622;2022-11-25T03:59:24;4.15;;;1.30;;
48241;SDS011;34041;51.812;4.622;2022-11-25T04:02:24;5.30;;;1.67;;
48241;SDS011;34041;51.812;4.622;2022-11-25T04:05:25;2.97;;;1.13;;
48241;SDS011;34041;51.812;4.622;2022-11-25T04:08:25;2.78;;;1.00;;
48241;SDS011;34041;51.812;4.622;2022-11-25T04:11:26;5.47;;;1.90;;
48241;SDS011;34041;51.812;4.622;2022-11-25T04:14:46;3.30;;;1.20;;
48241;SDS011;34041;51.812;4.622;2022-11-25T04:17:46;3.30;;;1.08;;
48241;SDS011;34041;51.812;4.622;2022-11-25T04:20:47;3.38;;;1.10;;
48241;SDS011;34041;51.812;4.622;2022-11-25T04:23:47;2.73;;;0.93;;
48241;SDS011;34041;51.812;4.622;2022-11-25T04:26:47;1.90;;;0.90;;
48241;SDS011;34041;51.812;4.622;2022-11-25T04:29:47;3.88;;;1.40;;
48241;SDS011;34041;51.812;4.622;2022-11-25T04:32:48;4.30;;;1.20;;
48241;SDS011;34041;51.812;4.622;2022-11-25T04:35:48;2.33;;;1.20;;
48241;SDS011;34041;51.812;4.622;2022-11-25T04:38:48;3.75;;;1.38;;
48241;SDS011;34041;51.812;4.622;2022-11-25T04:41:48;3.20;;;1.20;;
48241;SDS011;34041;51.812;4.622;2022-11-25T04:44:49;4.97;;;1.10;;
48241;SDS011;34041;51.812;4.622;2022-11-25T04:47:49;2.47;;;0.97;;
48241;SDS011;34041;51.812;4.622;2022-11-25T04:50:50;1.70;;;0.75;;
48241;SDS011;34041;51.812;4.622;2022-11-25T04:53:50;2.40;;;1.00;;
48241;SDS011;34041;51.812;4.622;2022-11-25T04:56:50;3.07;;;1.30;;
48241;SDS011;34041;51.812;4.622;2022-11-25T04:59:50;3.07;;;1.27;;
48241;SDS011;34041;51.812;4.622;2022-11-25T05:02:51;2.60;;;0.93;;
48241;SDS011;34041;51.812;4.622;2022-11-25T05:05:51;2.17;;;0.98;;
48241;SDS011;34041;51.812;4.622;2022-11-25T05:08:51;2.70;;;1.07;;
48241;SDS011;34041;51.812;4.622;2022-11-25T05:11:51;3.23;;;1.43;;
48241;SDS011;34041;51.812;4.622;2022-11-25T05:14:51;4.10;;;1.30;;
48241;SDS011;34041;51.812;4.622;2022-11-25T05:17:52;2.58;;;1.02;;
48241;SDS011;34041;51.812;4.622;2022-11-25T05:20:52;3.17;;;1.27;;
48241;SDS011;34041;51.812;4.622;2022-11-25T05:23:53;2.93;;;1.13;;
48241;SDS011;34041;51.812;4.622;2022-11-25T05:26:53;4.47;;;1.20;;
48241;SDS011;34041;51.812;4.622;2022-11-25T05:29:53;3.72;;;1.40;;
48241;SDS011;34041;51.812;4.622;2022-11-25T05:32:54;1.85;;;0.82;;
48241;SDS011;34041;51.812;4.622;2022-11-25T05:35:57;2.63;;;1.20;;
48241;SDS011;34041;51.812;4.622;2022-11-25T05:38:59;2.60;;;0.80;;
48241;SDS011;34041;51.812;4.622;2022-11-25T05:41:59;4.05;;;1.38;;
48241;SDS011;34041;51.812;4.622;2022-11-25T05:44:59;3.05;;;1.25;;
48241;SDS011;34041;51.812;4.622;2022-11-25T05:48:01;3.70;;;1.38;;
48241;SDS011;34041;51.812;4.622;2022-11-25T05:51:02;2.88;;;1.27;;
48241;SDS011;34041;51.812;4.622;2022-11-25T05:54:02;2.40;;;1.10;;
48241;SDS011;34041;51.812;4.622;2022-11-25T05:57:02;3.22;;;1.52;;
48241;SDS011;34041;51.812;4.622;2022-11-25T06:00:03;5.80;;;2.08;;
48241;SDS011;34041;51.812;4.622;2022-11-25T06:03:04;11.95;;;2.92;;
48241;SDS011;34041;51.812;4.622;2022-11-25T06:06:04;9.67;;;3.43;;
48241;SDS011;34041;51.812;4.622;2022-11-25T06:09:05;7.85;;;3.08;;
48241;SDS011;34041;51.812;4.622;2022-11-25T06:12:05;6.77;;;3.07;;
48241;SDS011;34041;51.812;4.622;2022-11-25T06:15:05;10.80;;;2.97;;
48241;SDS011;34041;51.812;4.622;2022-11-25T06:18:06;7.38;;;2.90;;
48241;SDS011;34041;51.812;4.622;2022-11-25T06:21:07;4.05;;;1.90;;
48241;SDS011;34041;51.812;4.622;2022-11-25T06:24:07;6.63;;;2.40;;
48241;SDS011;34041;51.812;4.622;2022-11-25T06:27:08;7.20;;;2.40;;
48241;SDS011;34041;51.812;4.622;2022-11-25T06:30:08;6.90;;;2.20;;
48241;SDS011;34041;51.812;4.622;2022-11-25T06:33:08;4.68;;;1.52;;
48241;SDS011;34041;51.812;4.622;2022-11-25T06:36:08;5.45;;;1.95;;
48241;SDS011;34041;51.812;4.622;2022-11-25T06:39:15;17.27;;;2.50;;
48241;SDS011;34041;51.812;4.622;2022-11-25T06:42:16;5.10;;;1.93;;
48241;SDS011;34041;51.812;4.622;2022-11-25T06:45:16;4.13;;;1.60;;
48241;SDS011;34041;51.812;4.622;2022-11-25T06:48:16;6.18;;;2.17;;
48241;SDS011;34041;51.812;4.622;2022-11-25T06:51:16;4.97;;;1.97;;
48241;SDS011;34041;51.812;4.622;2022-11-25T06:54:17;7.57;;;1.98;;
48241;SDS011;34041;51.812;4.622;2022-11-25T06:57:17;3.93;;;2.27;;
48241;SDS011;34041;51.812;4.622;2022-11-25T07:00:18;4.25;;;2.08;;
48241;SDS011;34041;51.812;4.622;2022-11-25T07:03:18;5.88;;;2.33;;
48241;SDS011;34041;51.812;4.622;2022-11-25T07:06:18;6.13;;;1.83;;
48241;SDS011;34041;51.812;4.622;2022-11-25T07:09:19;5.57;;;2.42;;
48241;SDS011;34041;51.812;4.622;2022-11-25T07:12:21;5.63;;;2.22;;
48241;SDS011;34041;51.812;4.622;2022-11-25T07:15:21;6.97;;;2.20;;
48241;SDS011;34041;51.812;4.622;2022-11-25T07:18:21;4.47;;;2.10;;
48241;SDS011;34041;51.812;4.622;2022-11-25T07:21:23;7.38;;;2.20;;
48241;SDS011;34041;51.812;4.622;2022-11-25T07:24:23;5.95;;;1.65;;
48241;SDS011;34041;51.812;4.622;2022-11-25T07:27:25;2.80;;;1.40;;
48241;SDS011;34041;51.812;4.622;2022-11-25T07:30:25;4.80;;;2.50;;
48241;SDS011;34041;51.812;4.622;2022-11-25T07:33:25;4.53;;;2.00;;
48241;SDS011;34041;51.812;4.622;2022-11-25T07:36:26;4.87;;;1.37;;
48241;SDS011;34041;51.812;4.622;2022-11-25T07:39:27;5.18;;;1.65;;
48241;SDS011;34041;51.812;4.622;2022-11-25T07:42:27;4.73;;;2.07;;
48241;SDS011;34041;51.812;4.622;2022-11-25T07:45:27;4.00;;;1.80;;
48241;SDS011;34041;51.812;4.622;2022-11-25T07:48:27;6.70;;;1.83;;
48241;SDS011;34041;51.812;4.622;2022-11-25T07:54:28;3.23;;;1.73;;
48241;SDS011;34041;51.812;4.622;2022-11-25T07:57:28;6.28;;;1.90;;
48241;SDS011;34041;51.812;4.622;2022-11-25T08:00:28;3.67;;;1.80;;
48241;SDS011;34041;51.812;4.622;2022-11-25T08:03:30;6.50;;;2.33;;
48241;SDS011;34041;51.812;4.622;2022-11-25T08:06:30;5.80;;;2.20;;
48241;SDS011;34041;51.812;4.622;2022-11-25T08:09:31;5.13;;;1.97;;
48241;SDS011;34041;51.812;4.622;2022-11-25T08:12:31;4.57;;;2.08;;
48241;SDS011;34041;51.812;4.622;2022-11-25T08:15:31;3.30;;;2.03;;
48241;SDS011;34041;51.812;4.622;2022-11-25T08:18:32;6.07;;;2.70;;
48241;SDS011;34041;51.812;4.622;2022-11-25T08:21:32;4.18;;;2.13;;
48241;SDS011;34041;51.812;4.622;2022-11-25T08:24:33;3.97;;;1.92;;
48241;SDS011;34041;51.812;4.622;2022-11-25T08:27:33;6.22;;;2.45;;
48241;SDS011;34041;51.812;4.622;2022-11-25T08:30:33;4.70;;;2.07;;
48241;SDS011;34041;51.812;4.622;2022-11-25T08:33:34;2.92;;;1.95;;
48241;SDS011;34041;51.812;4.622;2022-11-25T08:36:34;5.33;;;2.20;;
48241;SDS011;34041;51.812;4.622;2022-11-25T08:39:35;5.30;;;2.50;;
48241;SDS011;34041;51.812;4.622;2022-11-25T08:42:35;7.10;;;2.10;;
48241;SDS011;34041;51.812;4.622;2022-11-25T08:45:37;4.75;;;2.22;;
48241;SDS011;34041;51.812;4.622;2022-11-25T08:48:37;4.47;;;2.03;;
48241;SDS011;34041;51.812;4.622;2022-11-25T08:51:37;5.15;;;2.13;;
48241;SDS011;34041;51.812;4.622;2022-11-25T08:54:38;4.28;;;2.50;;
48241;SDS011;34041;51.812;4.622;2022-11-25T08:57:38;4.30;;;2.10;;
48241;SDS011;34041;51.812;4.622;2022-11-25T09:00:39;5.43;;;2.42;;
48241;SDS011;34041;51.812;4.622;2022-11-25T09:03:40;5.07;;;2.70;;
48241;SDS011;34041;51.812;4.622;2022-11-25T09:06:41;7.60;;;2.58;;
48241;SDS011;34041;51.812;4.622;2022-11-25T09:09:41;5.10;;;2.30;;
48241;SDS011;34041;51.812;4.622;2022-11-25T09:12:42;6.95;;;3.17;;
48241;SDS011;34041;51.812;4.622;2022-11-25T09:15:42;7.07;;;3.05;;
48241;SDS011;34041;51.812;4.622;2022-11-25T09:18:42;7.55;;;3.03;;
48241;SDS011;34041;51.812;4.622;2022-11-25T09:21:44;6.43;;;3.65;;
48241;SDS011;34041;51.812;4.622;2022-11-25T09:24:44;5.20;;;3.43;;
48241;SDS011;34041;51.812;4.622;2022-11-25T09:27:45;6.45;;;2.60;;
48241;SDS011;34041;51.812;4.622;2022-11-25T09:30:45;6.55;;;3.25;;
48241;SDS011;34041;51.812;4.622;2022-11-25T09:33:45;8.25;;;3.80;;
48241;SDS011;34041;51.812;4.622;2022-11-25T09:36:46;5.82;;;3.38;;
48241;SDS011;34041;51.812;4.622;2022-11-25T09:39:46;5.80;;;3.40;;
48241;SDS011;34041;51.812;4.622;2022-11-25T09:42:48;4.73;;;3.10;;
48241;SDS011;34041;51.812;4.622;2022-11-25T09:59:21;6.80;;;3.58;;
48241;SDS011;34041;51.812;4.622;2022-11-25T10:08:33;6.43;;;3.47;;
48241;SDS011;34041;51.812;4.622;2022-11-25T10:11:46;9.05;;;4.97;;
48241;SDS011;34041;51.812;4.622;2022-11-25T10:14:48;7.85;;;3.25;;
48241;SDS011;34041;51.812;4.622;2022-11-25T10:17:52;9.02;;;3.08;;
48241;SDS011;34041;51.812;4.622;2022-11-25T10:20:53;5.45;;;3.63;;
48241;SDS011;34041;51.812;4.622;2022-11-25T10:23:53;7.73;;;5.10;;
48241;SDS011;34041;51.812;4.622;2022-11-25T10:26:56;6.73;;;3.40;;
48241;SDS011;34041;51.812;4.622;2022-11-25T10:30:06;6.30;;;3.80;;
48241;SDS011;34041;51.812;4.622;2022-11-25T10:39:13;7.50;;;3.08;;
48241;SDS011;34041;51.812;4.622;2022-11-25T10:42:20;5.30;;;3.58;;
48241;SDS011;34041;51.812;4.622;2022-11-25T10:45:27;5.13;;;3.20;;
48241;SDS011;34041;51.812;4.622;2022-11-25T10:51:49;5.85;;;3.03;;
48241;SDS011;34041;51.812;4.622;2022-11-25T10:54:56;5.45;;;3.13;;
48241;SDS011;34041;51.812;4.622;2022-11-25T10:57:57;7.50;;;3.30;;
48241;SDS011;34041;51.812;4.622;2022-11-25T11:01:14;6.78;;;3.33;;
48241;SDS011;34041;51.812;4.622;2022-11-25T11:04:15;4.82;;;2.95;;
48241;SDS011;34041;51.812;4.622;2022-11-25T11:07:17;5.47;;;3.22;;
48241;SDS011;34041;51.812;4.622;2022-11-25T11:10:24;6.20;;;2.43;;
48241;SDS011;34041;51.812;4.622;2022-11-25T11:13:26;3.65;;;2.35;;
48241;SDS011;34041;51.812;4.622;2022-11-25T11:19:32;6.73;;;2.67;;
48241;SDS011;34041;51.812;4.622;2022-11-25T11:22:32;6.13;;;2.80;;
48241;SDS011;34041;51.812;4.622;2022-11-25T11:25:34;4.32;;;2.85;;
48241;SDS011;34041;51.812;4.622;2022-11-25T11:31:36;5.15;;;2.20;;
48241;SDS011;34041;51.812;4.622;2022-11-25T11:37:41;4.30;;;2.23;;
48241;SDS011;34041;51.812;4.622;2022-11-25T11:40:43;8.05;;;2.83;;
48241;SDS011;34041;51.812;4.622;2022-11-25T11:47:11;7.28;;;2.58;;
48241;SDS011;34041;51.812;4.622;2022-11-25T11:53:19;7.15;;;2.90;;
48241;SDS011;34041;51.812;4.622;2022-11-25T12:05:44;5.78;;;3.00;;
48241;SDS011;34041;51.812;4.622;2022-11-25T12:08:47;7.15;;;2.40;;
48241;SDS011;34041;51.812;4.622;2022-11-25T12:11:51;9.00;;;3.13;;
48241;SDS011;34041;51.812;4.622;2022-11-25T12:14:54;6.18;;;2.38;;
48241;SDS011;34041;51.812;4.622;2022-11-25T12:17:57;4.10;;;2.67;;
48241;SDS011;34041;51.812;4.622;2022-11-25T12:21:02;8.13;;;3.35;;
48241;SDS011;34041;51.812;4.622;2022-11-25T12:27:05;7.95;;;2.28;;
48241;SDS011;34041;51.812;4.622;2022-11-25T12:30:17;4.97;;;1.80;;
48241;SDS011;34041;51.812;4.622;2022-11-25T12:33:22;5.90;;;2.17;;
48241;SDS011;34041;51.812;4.622;2022-11-25T12:36:27;4.65;;;2.20;;
48241;SDS011;34041;51.812;4.622;2022-11-25T12:42:30;7.82;;;2.08;;
48241;SDS011;34041;51.812;4.622;2022-11-25T12:45:31;4.80;;;1.90;;
48241;SDS011;34041;51.812;4.622;2022-11-25T12:48:32;5.75;;;1.80;;
48241;SDS011;34041;51.812;4.622;2022-11-25T12:54:48;8.77;;;2.10;;
48241;SDS011;34041;51.812;4.622;2022-11-25T13:16:20;6.03;;;2.30;;
48241;SDS011;34041;51.812;4.622;2022-11-25T13:19:21;7.68;;;2.95;;
48241;SDS011;34041;51.812;4.622;2022-11-25T13:25:28;7.45;;;2.13;;
48241;SDS011;34041;51.812;4.622;2022-11-25T13:28:33;7.53;;;2.28;;
48241;SDS011;34041;51.812;4.622;2022-11-25T13:31:35;8.57;;;2.83;;
48241;SDS011;34041;51.812;4.622;2022-11-25T13:41:32;8.07;;;2.75;;
48241;SDS011;34041;51.812;4.622;2022-11-25T13:44:34;7.15;;;2.70;;
48241;SDS011;34041;51.812;4.622;2022-11-25T13:47:47;6.38;;;2.35;;
48241;SDS011;34041;51.812;4.622;2022-11-25T13:50:48;9.30;;;2.30;;
48241;SDS011;34041;51.812;4.622;2022-11-25T13:54:07;8.60;;;3.08;;
48241;SDS011;34041;51.812;4.622;2022-11-25T14:25:48;6.72;;;2.25;;
48241;SDS011;34041;51.812;4.622;2022-11-25T14:29:02;9.80;;;2.47;;
48241;SDS011;34041;51.812;4.622;2022-11-25T14:32:07;9.73;;;2.45;;
48241;SDS011;34041;51.812;4.622;2022-11-25T14:35:13;11.98;;;3.05;;
48241;SDS011;34041;51.812;4.622;2022-11-25T14:41:28;8.85;;;2.42;;
48241;SDS011;34041;51.812;4.622;2022-11-25T14:44:35;5.80;;;1.90;;
48241;SDS011;34041;51.812;4.622;2022-11-25T14:47:36;11.60;;;2.90;;
48241;SDS011;34041;51.812;4.622;2022-11-25T14:50:37;5.37;;;2.17;;
48241;SDS011;34041;51.812;4.622;2022-11-25T14:53:39;10.75;;;3.08;;
48241;SDS011;34041;51.812;4.622;2022-11-25T14:56:40;8.75;;;2.58;;
48241;SDS011;34041;51.812;4.622;2022-11-25T14:59:41;11.00;;;3.20;;
48241;SDS011;34041;51.812;4.622;2022-11-25T15:02:51;6.78;;;2.28;;
48241;SDS011;34041;51.812;4.622;2022-11-25T15:05:55;12.70;;;2.70;;
48241;SDS011;34041;51.812;4.622;2022-11-25T15:08:56;7.25;;;2.28;;
48241;SDS011;34041;51.812;4.622;2022-11-25T15:12:09;10.27;;;2.28;;
48241;SDS011;34041;51.812;4.622;2022-11-25T15:15:12;8.75;;;2.40;;
48241;SDS011;34041;51.812;4.622;2022-11-25T15:18:16;13.65;;;2.92;;
48241;SDS011;34041;51.812;4.622;2022-11-25T15:21:22;11.90;;;3.45;;
48241;SDS011;34041;51.812;4.622;2022-11-25T15:24:25;8.95;;;3.40;;
48241;SDS011;34041;51.812;4.622;2022-11-25T15:27:26;11.75;;;2.88;;
48241;SDS011;34041;51.812;4.622;2022-11-25T15:30:27;13.95;;;2.35;;
48241;SDS011;34041;51.812;4.622;2022-11-25T15:33:30;9.70;;;2.40;;
48241;SDS011;34041;51.812;4.622;2022-11-25T15:36:31;10.98;;;2.58;;
48241;SDS011;34041;51.812;4.622;2022-11-25T15:39:31;8.30;;;2.40;;
48241;SDS011;34041;51.812;4.622;2022-11-25T15:42:31;6.10;;;2.03;;
48241;SDS011;34041;51.812;4.622;2022-11-25T15:45:42;8.88;;;2.95;;
48241;SDS011;34041;51.812;4.622;2022-11-25T15:48:43;8.02;;;2.25;;
48241;SDS011;34041;51.812;4.622;2022-11-25T15:54:49;9.93;;;3.08;;
48241;SDS011;34041;51.812;4.622;2022-11-25T15:57:50;9.65;;;2.50;;
48241;SDS011;34041;51.812;4.622;2022-11-25T16:01:14;11.85;;;2.97;;
48241;SDS011;34041;51.812;4.622;2022-11-25T16:04:18;10.57;;;2.58;;
48241;SDS011;34041;51.812;4.622;2022-11-25T16:07:21;8.35;;;2.20;;
48241;SDS011;34041;51.812;4.622;2022-11-25T16:19:22;6.25;;;1.98;;
48241;SDS011;34041;51.812;4.622;2022-11-25T16:22:24;6.90;;;2.42;;
48241;SDS011;34041;51.812;4.622;2022-11-25T16:25:27;5.97;;;1.85;;
48241;SDS011;34041;51.812;4.622;2022-11-25T16:28:27;8.45;;;2.97;;
48241;SDS011;34041;51.812;4.622;2022-11-25T16:31:28;9.10;;;2.58;;
48241;SDS011;34041;51.812;4.622;2022-11-25T16:34:28;8.80;;;2.27;;
48241;SDS011;34041;51.812;4.622;2022-11-25T16:37:29;7.47;;;2.05;;
48241;SDS011;34041;51.812;4.622;2022-11-25T16:40:29;8.30;;;2.40;;
48241;SDS011;34041;51.812;4.622;2022-11-25T16:43:30;6.13;;;2.25;;
48241;SDS011;34041;51.812;4.622;2022-11-25T16:46:30;7.73;;;2.10;;
48241;SDS011;34041;51.812;4.622;2022-11-25T16:49:30;13.10;;;2.50;;
48241;SDS011;34041;51.812;4.622;2022-11-25T16:52:30;4.93;;;2.15;;
48241;SDS011;34041;51.812;4.622;2022-11-25T16:55:31;10.23;;;2.27;;
48241;SDS011;34041;51.812;4.622;2022-11-25T16:58:31;6.50;;;2.17;;
48241;SDS011;34041;51.812;4.622;2022-11-25T17:01:32;6.77;;;2.63;;
48241;SDS011;34041;51.812;4.622;2022-11-25T17:04:33;8.70;;;3.42;;
48241;SDS011;34041;51.812;4.622;2022-11-25T17:07:33;6.73;;;2.20;;
48241;SDS011;34041;51.812;4.622;2022-11-25T17:10:33;11.20;;;2.70;;
48241;SDS011;34041;51.812;4.622;2022-11-25T17:13:34;9.15;;;2.45;;
48241;SDS011;34041;51.812;4.622;2022-11-25T17:16:37;8.93;;;2.28;;
48241;SDS011;34041;51.812;4.622;2022-11-25T17:19:38;6.78;;;2.40;;
48241;SDS011;34041;51.812;4.622;2022-11-25T17:22:39;8.97;;;2.33;;
48241;SDS011;34041;51.812;4.622;2022-11-25T17:25:39;6.93;;;2.23;;
48241;SDS011;34041;51.812;4.622;2022-11-25T17:28:40;6.28;;;1.80;;
48241;SDS011;34041;51.812;4.622;2022-11-25T17:31:40;8.87;;;2.50;;
48241;SDS011;34041;51.812;4.622;2022-11-25T17:34:41;7.00;;;2.45;;
48241;SDS011;34041;51.812;4.622;2022-11-25T17:37:41;7.67;;;2.37;;
48241;SDS011;34041;51.812;4.622;2022-11-25T17:40:41;7.63;;;2.40;;
48241;SDS011;34041;51.812;4.622;2022-11-25T17:43:42;26.42;;;7.10;;
48241;SDS011;34041;51.812;4.622;2022-11-25T17:46:43;9.25;;;3.13;;
48241;SDS011;34041;51.812;4.622;2022-11-25T17:49:43;11.50;;;3.25;;
48241;SDS011;34041;51.812;4.622;2022-11-25T17:52:47;9.20;;;2.65;;
48241;SDS011;34041;51.812;4.622;2022-11-25T17:55:47;10.23;;;3.90;;
48241;SDS011;34041;51.812;4.622;2022-11-25T17:58:48;11.88;;;3.20;;
48241;SDS011;34041;51.812;4.622;2022-11-25T18:01:48;8.65;;;2.38;;
48241;SDS011;34041;51.812;4.622;2022-11-25T18:04:48;12.17;;;2.63;;
48241;SDS011;34041;51.812;4.622;2022-11-25T18:07:49;7.72;;;2.33;;
48241;SDS011;34041;51.812;4.622;2022-11-25T18:10:49;11.35;;;2.70;;
48241;SDS011;34041;51.812;4.622;2022-11-25T18:13:49;10.25;;;2.35;;
48241;SDS011;34041;51.812;4.622;2022-11-25T18:16:50;11.23;;;3.15;;
48241;SDS011;34041;51.812;4.622;2022-11-25T18:19:51;11.40;;;2.90;;
48241;SDS011;34041;51.812;4.622;2022-11-25T18:22:51;6.73;;;2.40;;
48241;SDS011;34041;51.812;4.622;2022-11-25T18:25:52;7.25;;;2.35;;
48241;SDS011;34041;51.812;4.622;2022-11-25T18:28:53;6.75;;;2.25;;
48241;SDS011;34041;51.812;4.622;2022-11-25T18:31:54;6.20;;;2.22;;
48241;SDS011;34041;51.812;4.622;2022-11-25T18:34:55;5.72;;;2.42;;
48241;SDS011;34041;51.812;4.622;2022-11-25T18:37:56;8.30;;;2.50;;
48241;SDS011;34041;51.812;4.622;2022-11-25T18:40:56;6.13;;;2.10;;
48241;SDS011;34041;51.812;4.622;2022-11-25T18:43:57;8.85;;;1.98;;
48241;SDS011;34041;51.812;4.622;2022-11-25T18:46:58;5.60;;;1.95;;
48241;SDS011;34041;51.812;4.622;2022-11-25T18:49:58;8.70;;;2.73;;
48241;SDS011;34041;51.812;4.622;2022-11-25T18:52:58;6.13;;;2.23;;
48241;SDS011;34041;51.812;4.622;2022-11-25T18:55:58;9.67;;;2.47;;
48241;SDS011;34041;51.812;4.622;2022-11-25T18:58:59;8.67;;;2.17;;
48241;SDS011;34041;51.812;4.622;2022-11-25T19:02:00;4.97;;;1.92;;
48241;SDS011;34041;51.812;4.622;2022-11-25T19:05:01;6.80;;;2.13;;
48241;SDS011;34041;51.812;4.622;2022-11-25T19:08:01;5.82;;;1.73;;
48241;SDS011;34041;51.812;4.622;2022-11-25T19:11:01;7.82;;;2.35;;
48241;SDS011;34041;51.812;4.622;2022-11-25T19:14:12;5.50;;;2.13;;
48241;SDS011;34041;51.812;4.622;2022-11-25T19:17:15;7.78;;;2.78;;
48241;SDS011;34041;51.812;4.622;2022-11-25T19:20:17;8.15;;;2.75;;
48241;SDS011;34041;51.812;4.622;2022-11-25T19:23:19;8.50;;;2.45;;
48241;SDS011;34041;51.812;4.622;2022-11-25T19:26:25;7.05;;;2.63;;
48241;SDS011;34041;51.812;4.622;2022-11-25T19:29:33;6.72;;;2.30;;
48241;SDS011;34041;51.812;4.622;2022-11-25T19:32:34;8.75;;;2.80;;
48241;SDS011;34041;51.812;4.622;2022-11-25T19:35:35;8.52;;;2.30;;
48241;SDS011;34041;51.812;4.622;2022-11-25T19:38:36;7.85;;;2.30;;
48241;SDS011;34041;51.812;4.622;2022-11-25T19:41:36;6.07;;;2.63;;
48241;SDS011;34041;51.812;4.622;2022-11-25T19:44:37;7.97;;;2.37;;
48241;SDS011;34041;51.812;4.622;2022-11-25T19:47:37;6.03;;;2.13;;
48241;SDS011;34041;51.812;4.622;2022-11-25T19:50:37;7.72;;;1.98;;
48241;SDS011;34041;51.812;4.622;2022-11-25T19:53:38;8.63;;;3.42;;
48241;SDS011;34041;51.812;4.622;2022-11-25T19:56:38;7.18;;;2.92;;
48241;SDS011;34041;51.812;4.622;2022-11-25T19:59:39;6.97;;;3.10;;
48241;SDS011;34041;51.812;4.622;2022-11-25T20:02:39;7.33;;;2.17;;
48241;SDS011;34041;51.812;4.622;2022-11-25T20:05:39;7.25;;;2.65;;
48241;SDS011;34041;51.812;4.622;2022-11-25T20:08:40;7.18;;;2.42;;
48241;SDS011;34041;51.812;4.622;2022-11-25T20:11:41;9.25;;;2.80;;
48241;SDS011;34041;51.812;4.622;2022-11-25T20:14:41;9.40;;;2.50;;
48241;SDS011;34041;51.812;4.622;2022-11-25T20:17:42;8.60;;;2.80;;
48241;SDS011;34041;51.812;4.622;2022-11-25T20:20:43;7.28;;;2.75;;
48241;SDS011;34041;51.812;4.622;2022-11-25T20:23:44;13.07;;;3.28;;
48241;SDS011;34041;51.812;4.622;2022-11-25T20:26:45;6.88;;;2.80;;
48241;SDS011;34041;51.812;4.622;2022-11-25T20:29:47;5.88;;;2.75;;
48241;SDS011;34041;51.812;4.622;2022-11-25T20:32:47;8.03;;;2.63;;
48241;SDS011;34041;51.812;4.622;2022-11-25T20:35:48;4.87;;;1.90;;